»·PEaware :: N691KL KSNA-KSAN

N691KL :: KSNA-KSAN

FLIGHT INFORMATION

Flight Status: Arrived
Operator: Privately registered:
United States
More flights under this callsign
Pilot: Thomas N. (7419)
Aircraft: BEECH AIRCRAFT BEECH AIRLINER
(B190)
More flights by this aircraft type
Origin: KSNA John Wayne-Orange Co
United States
Destination: KSAN San Diego Intl-Lindbergh
United States
More flights between these airports :: More routes between these airports
Route: +V25 PACIF V208 LAX118 CARDI MZB320 MZB
File this flight plan on PilotEdge
Remarks:
Altitude:
(Current/Filed)
9,000ft
Speed:
(Current/Filed)
175kts
Departed: 20-Oct-15 04:01 PM
Arrived: 20-Oct-15 04:32 PM
Distance/Time
Traveled:
66nm/0:31
Distance/Time
To Go:
Arrived

Flight Plot

Page will automatically refresh every two minutes.


Map Options




Map Legend


Flown Route
Filed Route
Departure Airport
Arrival Airport
Navaid (VOR, NDB)
Fix

Horizontal Profiles

Position Reports

Time Latitude Longitude Heading Altitude Ground
Speed
20-Oct-15 15:42 33.682708 -117.860461 272 61ft 0kts
20-Oct-15 15:43 33.682708 -117.860461 272 61ft 0kts
20-Oct-15 15:44 33.682708 -117.860461 272 61ft 0kts
20-Oct-15 15:45 33.682708 -117.860461 272 61ft 0kts
20-Oct-15 15:46 33.682708 -117.860461 272 61ft 0kts
20-Oct-15 15:47 33.682708 -117.860461 272 61ft 0kts
20-Oct-15 15:48 33.682708 -117.860461 272 61ft 0kts
20-Oct-15 15:49 33.682708 -117.860461 272 61ft 0kts
20-Oct-15 15:50 33.682708 -117.860461 272 61ft 0kts
20-Oct-15 15:51 33.682708 -117.860461 272 61ft 0kts
20-Oct-15 15:52 33.682708 -117.860461 272 61ft 0kts
20-Oct-15 15:53 33.682708 -117.860461 272 61ft 0kts
20-Oct-15 15:54 33.681530 -117.861814 213 61ft 10kts
20-Oct-15 15:55 33.680927 -117.862268 214 61ft 0kts
20-Oct-15 15:56 33.680657 -117.863008 297 61ft 0kts
20-Oct-15 15:57 33.680779 -117.863307 296 61ft 2kts
20-Oct-15 15:58 33.681172 -117.864204 297 61ft 0kts
20-Oct-15 15:59 33.681418 -117.865198 220 61ft 3kts
20-Oct-15 16:00 33.662499 -117.876416 194 475ft 173kts
20-Oct-15 16:01 33.605082 -117.888352 189 1590ft 234kts
20-Oct-15 16:02 33.539306 -117.904626 194 2610ft 247kts
20-Oct-15 16:03 33.480193 -117.922377 194 3529ft 198kts
20-Oct-15 16:04 33.447206 -117.915228 142 4196ft 187kts
20-Oct-15 16:05 33.406105 -117.885205 137 5146ft 179kts
20-Oct-15 16:06 33.369847 -117.843326 136 6160ft 186kts
20-Oct-15 16:07 33.333420 -117.802059 136 7687ft 174kts
20-Oct-15 16:08 33.299210 -117.763268 135 9008ft 180kts
20-Oct-15 16:09 33.278134 -117.695516 99 9022ft 248kts
20-Oct-15 16:10 33.265927 -117.614823 100 8981ft 238kts
20-Oct-15 16:11 33.232543 -117.559378 154 8986ft 209kts
20-Oct-15 16:12 33.181674 -117.522945 152 8987ft 216kts
20-Oct-15 16:13 33.130130 -117.484683 151 8985ft 219kts
20-Oct-15 16:14 33.078076 -117.445845 151 8748ft 227kts
20-Oct-15 16:15 33.022931 -117.404667 150 7749ft 230kts
20-Oct-15 16:16 32.971908 -117.366603 151 6800ft 191kts
20-Oct-15 16:17 32.929899 -117.335406 150 6962ft 190kts
20-Oct-15 16:18 32.881728 -117.298960 136 7020ft 220kts
20-Oct-15 16:19 32.855406 -117.231432 113 6776ft 243kts
20-Oct-15 16:20 32.828346 -117.153395 113 5540ft 262kts
20-Oct-15 16:21 32.804987 -117.083323 113 4925ft 195kts
20-Oct-15 16:22 32.786672 -117.027576 116 4960ft 199kts
20-Oct-15 16:23 32.762683 -116.961954 118 4662ft 213kts
20-Oct-15 16:24 32.718791 -116.918594 144 3793ft 209kts
20-Oct-15 16:25 32.672614 -116.907507 244 3820ft 183kts
20-Oct-15 16:26 32.653522 -116.963154 287 3670ft 181kts
20-Oct-15 16:27 32.692725 -117.008866 305 2910ft 226kts
20-Oct-15 16:28 32.706330 -117.071715 274 1651ft 161kts
20-Oct-15 16:29 32.716014 -117.117588 285 1367ft 127kts
20-Oct-15 16:30 32.725930 -117.158129 281 555ft 130kts
20-Oct-15 16:31 32.733180 -117.187714 302 22ft 20kts
20-Oct-15 16:32 32.733943 -117.188050 16 22ft 0kts
20-Oct-15 16:33 32.734024 -117.188016 22 22ft 2kts

Navigation Log

Ident Type
Flight plan parsing failed, navigation log unavailable